Latest Coastal Weather Observations for Green Cape

IDN60701

Issued at 6:51 am EST Monday 1 June 2020 (issued every 10 minutes, with the page automatically refreshed every 10 minutes)

About coastal observations | Map of coastal stations | Coastal observations for NSW | Marine services | Other Formats
Station Details ID: 069137 Name: GREEN CAPE AWS Lat: -37.26 Lon: 150.05 Height: 19.4 m
Data from the previous 72 hours. | See also: Recent months at Green Cape
Date/Time
EST
Wind Sea
Height
m
Swell Vis
km
Cloud Weather Temp
°C
Press
hPa
Rain since
9am
mm
Dir  Spd
kts
Gust
kts
Height
m
Period
s
Dir
01/06:30am CALM 0 0 - - - - - - - 14.9 1005.6 0.0
01/06:00am CALM 0 0 - - - - - - - 15.0 1005.6 0.0
01/05:30am CALM 0 0 - - - - - - - 15.2 1005.7 0.0
01/05:00am CALM 0 0 - - - - - - - 15.4 1005.9 0.0
01/04:30am CALM 0 0 - - - - - - - 15.9 1005.9 0.0
01/04:00am CALM 0 0 - - - - - - - 15.8 1006.1 0.0
01/03:30am CALM 0 0 - - - - - - - 15.3 1006.6 0.0
01/03:00am CALM 0 0 - - - - - - - 15.6 1007.0 0.0
01/02:30am CALM 0 0 - - - - - - - 15.2 1007.3 0.0
01/02:00am CALM 0 0 - - - - - - - 15.3 1007.7 0.0
01/01:30am CALM 0 0 - - - - - - - 15.5 1007.9 0.0
01/01:00am CALM 0 0 - - - - - - - 15.7 1008.5 0.0
01/12:30am CALM 0 0 - - - - - - - 15.7 1008.6 0.0
01/12:00am CALM 0 0 - - - - - - - 15.8 1009.1 0.0
 
Date/Time
EST
Wind Sea
Height
m
Swell Vis
km
Cloud Weather Temp
°C
Press
hPa
Rain since
9am
mm
Dir  Spd
kts
Gust
kts
Height
m
Period
s
Dir
31/11:30pm CALM 0 0 - - - - - - - 15.6 1009.5 0.0
31/11:00pm CALM 0 0 - - - - - - - 15.7 1009.9 0.0
31/10:30pm CALM 0 0 - - - - - - - 16.1 1010.0 0.0
31/10:00pm CALM 0 0 - - - - - - - 16.4 1010.3 0.0
31/09:30pm CALM 0 0 - - - - - - - 17.0 1010.4 0.0
31/09:00pm CALM 0 0 - - - - - - - 16.9 1010.6 0.0
31/08:30pm CALM 0 0 - - - - - - - 16.8 1010.8 0.0
31/08:00pm CALM 0 0 - - - - - - - 16.7 1010.9 0.0
31/07:30pm CALM 0 0 - - - - - - - 17.0 1010.9 0.0
31/07:00pm CALM 0 0 - - - - - - - 17.1 1010.9 0.0
31/06:30pm CALM 0 0 - - - - - - - 17.1 1010.9 0.0
31/06:00pm CALM 0 0 - - - - - - - 16.3 1011.0 0.0
31/05:30pm CALM 0 0 - - - - - - - 16.3 1011.0 0.0
31/05:00pm CALM 0 0 - - - - - - - 16.7 1011.1 0.0
31/04:30pm CALM 0 0 - - - - - - - 16.7 1011.0 0.0
31/04:00pm CALM 0 0 - - - - - - - 17.0 1011.0 0.0
31/03:30pm CALM 0 0 - - - - - - - 17.2 1011.0 0.0
31/03:00pm CALM 0 0 - - - - - - - 17.6 1011.0 0.0
31/02:30pm CALM 0 0 - - - - - - - 17.9 1010.8 0.0
31/02:00pm CALM 0 0 - - - - - - - 18.1 1011.1 0.0
31/01:30pm CALM 0 0 - - - - - - - 18.1 1011.4 0.0
31/01:00pm CALM 0 0 - - - - - - - 18.5 1011.7 0.0
31/12:30pm CALM 0 0 - - - - - - - 18.4 1012.2 0.0
31/12:00pm CALM 0 0 - - - - - - - 18.1 1012.3 0.0
31/11:30am CALM 0 3 - - - - - - - 17.7 1012.7 0.0
31/11:00am CALM 0 0 - - - - - - - 17.6 1013.5 0.0
31/10:30am CALM 0 5 - - - - - - - 16.9 1014.0 0.0
31/10:00am CALM 0 0 - - - - - - - 17.2 1014.4 0.0
31/09:30am CALM 0 2 - - - - - - - 17.1 1014.5 0.0
31/09:00am CALM 0 0 - - - - - - - 16.9 1014.7 0.0
31/08:30am - 11 14 - - - - - - - 15.4 1014.5 0.0
31/08:00am - 13 16 - - - - - - - 15.3 1014.3 0.0
31/07:30am - 14 17 - - - - - - - 15.2 1014.4 0.0
31/07:00am - 15 18 - - - - - - - 15.5 1014.4 0.0
31/06:30am - 15 18 - - - - - - - 15.4 1014.3 0.0
31/06:00am - 13 17 - - - - - - - 15.7 1014.4 0.0
31/05:30am - 18 20 - - - - - - - 16.4 1014.1 0.0
31/05:00am - 19 24 - - - - - - - 16.4 1014.1 0.0
31/04:30am - 19 24 - - - - - - - 16.3 1014.2 0.0
31/04:00am - 20 23 - - - - - - - 16.4 1014.4 0.0
31/03:30am - 20 24 - - - - - - - 16.3 1014.5 0.0
31/03:00am - 18 21 - - - - - - - 16.2 1015.0 0.0
31/02:30am - 14 18 - - - - - - - 16.2 1015.5 0.0
31/02:00am - 15 18 - - - - - - - 16.0 1015.8 0.0
31/01:30am - 16 19 - - - - - - - 16.1 1015.8 0.0
31/01:00am - 17 22 - - - - - - - 16.2 1015.8 0.0
31/12:30am - 21 25 - - - - - - - 16.5 1015.6 0.0
31/12:00am - 24 28 - - - - - - - 16.6 1015.3 0.0
 
Date/Time
EST
Wind Sea
Height
m
Swell Vis
km
Cloud Weather Temp
°C
Press
hPa
Rain since
9am
mm
Dir  Spd
kts
Gust
kts
Height
m
Period
s
Dir
30/11:30pm - 26 32 - - - - - - - 16.7 1015.4 0.0
30/11:00pm - 26 33 - - - - - - - 16.8 1015.8 0.0
30/10:30pm - 30 37 - - - - - - - 16.8 1015.4 0.0
30/10:00pm - 29 33 - - - - - - - 16.8 1015.7 0.0
30/09:30pm - 23 29 - - - - - - - 16.7 1016.4 0.0
30/09:00pm - 28 34 - - - - - - - 17.0 1016.0 0.0
30/08:30pm - 30 39 - - - - - - - 17.1 1016.0 0.0
30/08:00pm - 29 35 - - - - - - - 17.1 1016.6 0.0
30/07:30pm - 27 35 - - - - - - - 16.9 1017.2 0.0
30/07:00pm - 27 33 - - - - - - - 16.9 1017.6 0.0
30/06:30pm - 26 31 - - - - - - - 17.0 1018.0 0.0
30/06:00pm - 22 27 - - - - - - - 16.9 1018.5 0.0
30/05:30pm - 22 27 - - - - - - - 16.8 1018.7 0.0
30/05:00pm - 21 24 - - - - - - - 16.8 1018.9 0.0
30/04:30pm - 2 20 - - - - - - - 16.8 1019.1 0.0
30/04:00pm CALM 0 0 - - - - - - - 16.0 1019.4 0.0
30/03:30pm - 1 9 - - - - - - - 16.0 1019.7 0.0
30/03:00pm CALM 0 0 - - - - - - - 16.3 1020.1 0.0
30/02:30pm CALM 0 2 - - - - - - - 16.6 1020.4 0.0
30/02:00pm CALM 0 4 - - - - - - - 16.2 1021.0 0.0
30/01:30pm CALM 0 9 - - - - - - - 16.3 1021.4 0.0
30/01:00pm - 1 9 - - - - - - - 16.2 1021.8 0.0
30/12:30pm CALM 0 5 - - - - - - - 16.0 1022.2 0.0
30/12:00pm CALM 0 4 - - - - - - - 15.9 1022.8 0.0
30/11:30am CALM 0 8 - - - - - - - 16.0 1023.6 0.0
30/11:00am CALM 0 3 - - - - - - - 15.8 1024.3 0.0
30/10:30am CALM 0 0 - - - - - - - 15.6 1024.7 0.0
30/10:00am CALM 0 0 - - - - - - - 15.2 1025.1 0.0
30/09:30am CALM 0 0 - - - - - - - 15.2 1025.3 0.0
30/09:00am CALM 0 0 - - - - - - - 15.0 1025.2 0.2
30/08:30am CALM 0 0 - - - - - - - 14.3 1025.2 0.2
30/08:00am CALM 0 0 - - - - - - - 13.5 1025.1 0.2
30/07:30am CALM 0 0 - - - - - - - 12.7 1025.1 0.2
30/07:00am CALM 0 0 - - - - - - - 12.1 1025.1 0.2
30/06:30am CALM 0 0 - - - - - - - 12.2 1024.9 0.0
30/06:00am CALM 0 0 - - - - - - - 12.4 1024.7 0.0
30/05:30am CALM 0 0 - - - - - - - 12.5 1024.5 0.0
30/05:00am CALM 0 0 - - - - - - - 12.6 1024.6 0.0
30/04:30am CALM 0 0 - - - - - - - 12.5 1024.8 0.0
30/04:00am CALM 0 0 - - - - - - - 12.7 1024.9 0.0
30/03:30am CALM 0 0 - - - - - - - 12.3 1025.2 0.0
30/03:00am CALM 0 0 - - - - - - - 12.1 1025.4 0.0
30/02:30am CALM 0 0 - - - - - - - 11.7 1025.7 0.0
30/02:00am CALM 0 0 - - - - - - - 12.2 1025.9 0.0
30/01:30am CALM 0 0 - - - - - - - 12.9 1025.9 0.0
30/01:00am CALM 0 0 - - - - - - - 13.0 1026.0 0.0
30/12:30am CALM 0 0 - - - - - - - 12.9 1026.1 0.0
30/12:00am CALM 0 0 - - - - - - - 12.9 1026.4 0.0
 
Date/Time
EST
Wind Sea
Height
m
Swell Vis
km
Cloud Weather Temp
°C
Press
hPa
Rain since
9am
mm
Dir  Spd
kts
Gust
kts
Height
m
Period
s
Dir
29/11:30pm CALM 0 0 - - - - - - - 13.0 1026.4 0.0
29/11:00pm CALM 0 0 - - - - - - - 12.9 1026.6 0.0
29/10:30pm CALM 0 0 - - - - - - - 13.1 1026.8 0.0
29/10:00pm CALM 0 0 - - - - - - - 13.3 1027.2 0.0
29/09:30pm CALM 0 0 - - - - - - - 13.3 1027.4 0.0
29/09:00pm CALM 0 0 - - - - - - - 13.3 1027.5 0.0
29/08:30pm CALM 0 0 - - - - - - - 12.9 1027.6 0.0
29/08:00pm CALM 0 0 - - - - - - - 13.5 1027.7 0.0
29/07:30pm CALM 0 0 - - - - - - - 14.1 1027.5 0.0
29/07:00pm CALM 0 0 - - - - - - - 14.9 1027.3 0.0
29/06:30pm CALM 0 0 - - - - - - - 15.0 1027.2 0.0
29/06:00pm CALM 0 0 - - - - - - - 14.8 1027.1 0.0
29/05:30pm CALM 0 0 - - - - - - - 14.8 1027.0 0.0
29/05:00pm CALM 0 0 - - - - - - - 14.7 1026.8 0.0
29/04:30pm CALM 0 0 - - - - - - - 15.5 1026.7 0.0
29/04:00pm CALM 0 0 - - - - - - - 16.2 1026.4 0.0
29/03:30pm CALM 0 0 - - - - - - - 16.7 1026.1 0.0
29/03:00pm CALM 0 0 - - - - - - - 17.6 1026.0 0.0
29/02:30pm CALM 0 0 - - - - - - - 17.8 1026.1 0.0
29/02:00pm CALM 0 3 - - - - - - - 18.1 1026.0 0.0
29/01:30pm CALM 0 0 - - - - - - - 18.5 1026.2 0.0
29/01:00pm CALM 0 0 - - - - - - - 18.0 1026.3 0.0
29/12:30pm CALM 0 0 - - - - - - - 16.9 1026.6 0.0
29/12:00pm CALM 0 1 - - - - - - - 17.2 1026.9 0.0
29/11:30am - 5 7 - - - - - - - 16.1 1027.3 0.0
29/11:00am - 4 6 - - - - - - - 16.0 1027.7 0.0
29/10:30am - 5 7 - - - - - - - 14.9 1027.9 0.0
29/10:00am - 6 9 - - - - - - - 13.8 1027.9 0.0
29/09:30am - 9 10 - - - - - - - 12.8 1027.8 0.0
29/09:00am - 10 11 - - - - - - - 12.2 1027.6 0.0
29/08:30am - 9 11 - - - - - - - 12.0 1027.4 0.0
29/08:00am - 9 11 - - - - - - - 11.7 1027.0 0.0
29/07:30am - 9 12 - - - - - - - 11.0 1026.7 0.0
29/07:00am - 7 10 - - - - - - - 11.2 1026.4 0.0

Other formats

Comma delimited format used in spreadsheet applications
http://www.bom.gov.au/fwo/IDN60701/IDN60701.94934.axf

JavaScript Object Notation format (JSON) in row-major order
http://www.bom.gov.au/fwo/IDN60701/IDN60701.94934.json

Data quality

Most of these data are generated automatically and are frequently updated. Quality checks on data are not normally performed. It is possible for incorrect values to appear. Refer to information at About Latest Weather Observations and please check the disclaimer before using these data.